sensor_id;sensor_type;location;lat;lon;timestamp;P1;durP1;ratioP1;P2;durP2;ratioP2
76591;SDS011;65481;47.600;19.682;2024-01-27T00:02:16;6.72;;;3.28;;
76591;SDS011;65481;47.600;19.682;2024-01-27T00:07:16;7.85;;;4.35;;
76591;SDS011;65481;47.600;19.682;2024-01-27T00:12:17;8.35;;;5.95;;
76591;SDS011;65481;47.600;19.682;2024-01-27T00:17:18;6.95;;;4.80;;
76591;SDS011;65481;47.600;19.682;2024-01-27T00:22:23;9.27;;;4.43;;
76591;SDS011;65481;47.600;19.682;2024-01-27T00:27:24;11.88;;;5.10;;
76591;SDS011;65481;47.600;19.682;2024-01-27T00:32:24;9.23;;;4.88;;
76591;SDS011;65481;47.600;19.682;2024-01-27T00:37:25;8.73;;;5.15;;
76591;SDS011;65481;47.600;19.682;2024-01-27T00:42:25;7.30;;;4.65;;
76591;SDS011;65481;47.600;19.682;2024-01-27T00:47:26;9.13;;;4.45;;
76591;SDS011;65481;47.600;19.682;2024-01-27T00:52:26;7.70;;;5.22;;
76591;SDS011;65481;47.600;19.682;2024-01-27T00:57:27;10.32;;;5.85;;
76591;SDS011;65481;47.600;19.682;2024-01-27T01:02:27;9.35;;;4.18;;
76591;SDS011;65481;47.600;19.682;2024-01-27T01:07:29;8.60;;;4.35;;
76591;SDS011;65481;47.600;19.682;2024-01-27T01:12:30;6.63;;;4.18;;
76591;SDS011;65481;47.600;19.682;2024-01-27T01:17:30;5.78;;;3.35;;
76591;SDS011;65481;47.600;19.682;2024-01-27T01:22:31;7.97;;;3.38;;
76591;SDS011;65481;47.600;19.682;2024-01-27T01:27:31;6.53;;;3.75;;
76591;SDS011;65481;47.600;19.682;2024-01-27T01:32:32;6.10;;;3.25;;
76591;SDS011;65481;47.600;19.682;2024-01-27T01:37:33;6.45;;;3.28;;
76591;SDS011;65481;47.600;19.682;2024-01-27T01:42:33;5.25;;;3.20;;
76591;SDS011;65481;47.600;19.682;2024-01-27T01:47:34;3.47;;;2.28;;
76591;SDS011;65481;47.600;19.682;2024-01-27T01:52:34;4.55;;;2.30;;
76591;SDS011;65481;47.600;19.682;2024-01-27T01:57:36;3.25;;;1.50;;
76591;SDS011;65481;47.600;19.682;2024-01-27T02:02:37;3.40;;;1.60;;
76591;SDS011;65481;47.600;19.682;2024-01-27T02:07:38;2.20;;;1.25;;
76591;SDS011;65481;47.600;19.682;2024-01-27T02:12:39;3.15;;;1.13;;
76591;SDS011;65481;47.600;19.682;2024-01-27T02:17:39;2.67;;;1.00;;
76591;SDS011;65481;47.600;19.682;2024-01-27T02:22:40;1.45;;;0.98;;
76591;SDS011;65481;47.600;19.682;2024-01-27T02:27:41;1.52;;;1.15;;
76591;SDS011;65481;47.600;19.682;2024-01-27T02:32:41;3.28;;;1.23;;
76591;SDS011;65481;47.600;19.682;2024-01-27T02:37:42;1.98;;;0.93;;
76591;SDS011;65481;47.600;19.682;2024-01-27T02:42:42;1.40;;;0.98;;
76591;SDS011;65481;47.600;19.682;2024-01-27T02:47:43;1.88;;;0.85;;
76591;SDS011;65481;47.600;19.682;2024-01-27T02:52:44;1.25;;;0.70;;
76591;SDS011;65481;47.600;19.682;2024-01-27T02:57:44;0.50;;;0.45;;
76591;SDS011;65481;47.600;19.682;2024-01-27T03:02:45;1.35;;;0.77;;
76591;SDS011;65481;47.600;19.682;2024-01-27T03:07:45;1.13;;;0.80;;
76591;SDS011;65481;47.600;19.682;2024-01-27T03:12:46;4.40;;;0.93;;
76591;SDS011;65481;47.600;19.682;2024-01-27T03:17:46;0.82;;;0.68;;
76591;SDS011;65481;47.600;19.682;2024-01-27T03:22:47;1.40;;;0.95;;
76591;SDS011;65481;47.600;19.682;2024-01-27T03:27:48;1.17;;;0.60;;
76591;SDS011;65481;47.600;19.682;2024-01-27T03:32:48;0.98;;;0.65;;
76591;SDS011;65481;47.600;19.682;2024-01-27T03:37:49;0.77;;;0.50;;
76591;SDS011;65481;47.600;19.682;2024-01-27T03:42:49;0.35;;;0.35;;
76591;SDS011;65481;47.600;19.682;2024-01-27T03:47:49;2.00;;;0.70;;
76591;SDS011;65481;47.600;19.682;2024-01-27T03:52:50;0.57;;;0.50;;
76591;SDS011;65481;47.600;19.682;2024-01-27T03:57:50;0.80;;;0.47;;
76591;SDS011;65481;47.600;19.682;2024-01-27T04:02:51;2.03;;;0.55;;
76591;SDS011;65481;47.600;19.682;2024-01-27T04:07:51;0.60;;;0.60;;
76591;SDS011;65481;47.600;19.682;2024-01-27T04:12:52;0.60;;;0.52;;
76591;SDS011;65481;47.600;19.682;2024-01-27T04:17:52;1.75;;;0.70;;
76591;SDS011;65481;47.600;19.682;2024-01-27T04:22:54;1.38;;;0.82;;
76591;SDS011;65481;47.600;19.682;2024-01-27T04:27:55;1.00;;;0.60;;
76591;SDS011;65481;47.600;19.682;2024-01-27T04:32:55;1.95;;;0.70;;
76591;SDS011;65481;47.600;19.682;2024-01-27T04:37:55;1.17;;;0.60;;
76591;SDS011;65481;47.600;19.682;2024-01-27T04:42:56;1.75;;;0.80;;
76591;SDS011;65481;47.600;19.682;2024-01-27T04:47:56;4.35;;;0.98;;
76591;SDS011;65481;47.600;19.682;2024-01-27T04:52:57;1.48;;;0.95;;
76591;SDS011;65481;47.600;19.682;2024-01-27T04:57:57;1.42;;;0.73;;
76591;SDS011;65481;47.600;19.682;2024-01-27T05:03:01;2.58;;;0.93;;
76591;SDS011;65481;47.600;19.682;2024-01-27T05:08:04;0.77;;;0.43;;
76591;SDS011;65481;47.600;19.682;2024-01-27T05:13:05;1.17;;;0.77;;
76591;SDS011;65481;47.600;19.682;2024-01-27T05:18:05;0.60;;;0.30;;
76591;SDS011;65481;47.600;19.682;2024-01-27T05:23:06;0.93;;;0.50;;
76591;SDS011;65481;47.600;19.682;2024-01-27T05:28:06;1.80;;;0.55;;
76591;SDS011;65481;47.600;19.682;2024-01-27T05:33:07;0.32;;;0.30;;
76591;SDS011;65481;47.600;19.682;2024-01-27T05:38:08;0.88;;;0.47;;
76591;SDS011;65481;47.600;19.682;2024-01-27T05:43:08;0.55;;;0.28;;
76591;SDS011;65481;47.600;19.682;2024-01-27T05:48:09;2.45;;;0.52;;
76591;SDS011;65481;47.600;19.682;2024-01-27T05:53:09;1.08;;;0.30;;
76591;SDS011;65481;47.600;19.682;2024-01-27T05:58:10;1.33;;;0.68;;
76591;SDS011;65481;47.600;19.682;2024-01-27T06:03:10;4.80;;;0.70;;
76591;SDS011;65481;47.600;19.682;2024-01-27T06:08:11;2.15;;;0.60;;
76591;SDS011;65481;47.600;19.682;2024-01-27T06:13:11;1.60;;;0.85;;
76591;SDS011;65481;47.600;19.682;2024-01-27T06:18:12;2.20;;;0.60;;
76591;SDS011;65481;47.600;19.682;2024-01-27T06:23:12;1.10;;;0.90;;
76591;SDS011;65481;47.600;19.682;2024-01-27T06:28:13;1.80;;;0.90;;
76591;SDS011;65481;47.600;19.682;2024-01-27T06:33:13;2.83;;;1.10;;
76591;SDS011;65481;47.600;19.682;2024-01-27T06:38:14;3.97;;;1.38;;
76591;SDS011;65481;47.600;19.682;2024-01-27T06:43:14;3.25;;;1.83;;
76591;SDS011;65481;47.600;19.682;2024-01-27T06:48:15;6.75;;;1.50;;
76591;SDS011;65481;47.600;19.682;2024-01-27T06:53:15;1.80;;;1.08;;
76591;SDS011;65481;47.600;19.682;2024-01-27T06:58:16;2.65;;;0.88;;
76591;SDS011;65481;47.600;19.682;2024-01-27T07:03:16;1.85;;;1.00;;
76591;SDS011;65481;47.600;19.682;2024-01-27T07:08:17;3.45;;;1.20;;
76591;SDS011;65481;47.600;19.682;2024-01-27T07:13:17;1.55;;;0.80;;
76591;SDS011;65481;47.600;19.682;2024-01-27T07:18:18;4.90;;;0.85;;
76591;SDS011;65481;47.600;19.682;2024-01-27T07:23:19;2.33;;;0.75;;
76591;SDS011;65481;47.600;19.682;2024-01-27T07:28:20;2.15;;;0.82;;
76591;SDS011;65481;47.600;19.682;2024-01-27T07:33:20;7.32;;;0.93;;
76591;SDS011;65481;47.600;19.682;2024-01-27T07:38:20;1.63;;;0.70;;
76591;SDS011;65481;47.600;19.682;2024-01-27T07:43:21;2.08;;;0.80;;
76591;SDS011;65481;47.600;19.682;2024-01-27T07:48:21;2.00;;;1.15;;
76591;SDS011;65481;47.600;19.682;2024-01-27T07:53:22;2.10;;;1.00;;
76591;SDS011;65481;47.600;19.682;2024-01-27T07:58:23;2.60;;;0.80;;
76591;SDS011;65481;47.600;19.682;2024-01-27T08:03:23;2.53;;;0.90;;
76591;SDS011;65481;47.600;19.682;2024-01-27T08:08:24;0.93;;;0.70;;
76591;SDS011;65481;47.600;19.682;2024-01-27T08:13:24;2.00;;;0.68;;
76591;SDS011;65481;47.600;19.682;2024-01-27T08:18:25;1.63;;;0.55;;
76591;SDS011;65481;47.600;19.682;2024-01-27T08:23:25;4.68;;;0.70;;
76591;SDS011;65481;47.600;19.682;2024-01-27T08:28:25;3.40;;;0.85;;
76591;SDS011;65481;47.600;19.682;2024-01-27T08:33:26;1.17;;;0.70;;
76591;SDS011;65481;47.600;19.682;2024-01-27T08:38:26;4.88;;;1.27;;
76591;SDS011;65481;47.600;19.682;2024-01-27T08:43:27;1.98;;;0.65;;
76591;SDS011;65481;47.600;19.682;2024-01-27T08:48:27;0.63;;;0.57;;
76591;SDS011;65481;47.600;19.682;2024-01-27T08:53:28;1.88;;;0.98;;
76591;SDS011;65481;47.600;19.682;2024-01-27T08:58:29;0.80;;;0.55;;
76591;SDS011;65481;47.600;19.682;2024-01-27T09:03:29;1.10;;;0.88;;
76591;SDS011;65481;47.600;19.682;2024-01-27T09:08:30;2.05;;;0.73;;
76591;SDS011;65481;47.600;19.682;2024-01-27T09:13:30;0.95;;;0.52;;
76591;SDS011;65481;47.600;19.682;2024-01-27T09:18:31;3.28;;;0.82;;
76591;SDS011;65481;47.600;19.682;2024-01-27T09:23:31;2.42;;;0.70;;
76591;SDS011;65481;47.600;19.682;2024-01-27T09:28:32;6.00;;;1.10;;
76591;SDS011;65481;47.600;19.682;2024-01-27T09:33:32;2.78;;;1.15;;
76591;SDS011;65481;47.600;19.682;2024-01-27T09:38:35;1.00;;;0.70;;
76591;SDS011;65481;47.600;19.682;2024-01-27T09:43:36;5.57;;;1.13;;
76591;SDS011;65481;47.600;19.682;2024-01-27T09:48:37;3.42;;;0.70;;
76591;SDS011;65481;47.600;19.682;2024-01-27T09:53:38;2.65;;;0.75;;
76591;SDS011;65481;47.600;19.682;2024-01-27T09:58:40;3.72;;;0.90;;
76591;SDS011;65481;47.600;19.682;2024-01-27T10:03:42;2.15;;;0.80;;
76591;SDS011;65481;47.600;19.682;2024-01-27T10:08:46;2.30;;;0.80;;
76591;SDS011;65481;47.600;19.682;2024-01-27T10:13:56;1.42;;;0.60;;
76591;SDS011;65481;47.600;19.682;2024-01-27T10:19:02;1.47;;;0.80;;
76591;SDS011;65481;47.600;19.682;2024-01-27T10:24:03;3.28;;;0.65;;
76591;SDS011;65481;47.600;19.682;2024-01-27T10:29:06;2.80;;;0.77;;
76591;SDS011;65481;47.600;19.682;2024-01-27T10:34:08;4.63;;;1.20;;
76591;SDS011;65481;47.600;19.682;2024-01-27T10:39:18;0.82;;;0.70;;
76591;SDS011;65481;47.600;19.682;2024-01-27T10:44:20;3.38;;;1.10;;
76591;SDS011;65481;47.600;19.682;2024-01-27T10:49:21;4.35;;;0.90;;
76591;SDS011;65481;47.600;19.682;2024-01-27T10:54:24;4.13;;;1.23;;
76591;SDS011;65481;47.600;19.682;2024-01-27T10:59:28;3.83;;;1.02;;
76591;SDS011;65481;47.600;19.682;2024-01-27T11:04:32;2.05;;;0.80;;
76591;SDS011;65481;47.600;19.682;2024-01-27T11:09:35;5.28;;;1.48;;
76591;SDS011;65481;47.600;19.682;2024-01-27T11:14:37;4.07;;;1.77;;
76591;SDS011;65481;47.600;19.682;2024-01-27T11:19:39;3.10;;;1.42;;
76591;SDS011;65481;47.600;19.682;2024-01-27T11:24:40;2.72;;;1.20;;
76591;SDS011;65481;47.600;19.682;2024-01-27T11:29:46;8.10;;;1.35;;
76591;SDS011;65481;47.600;19.682;2024-01-27T11:39:48;1.85;;;1.10;;
76591;SDS011;65481;47.600;19.682;2024-01-27T11:44:48;2.05;;;1.05;;
76591;SDS011;65481;47.600;19.682;2024-01-27T11:49:52;2.15;;;1.23;;
76591;SDS011;65481;47.600;19.682;2024-01-27T11:54:57;2.25;;;0.95;;
76591;SDS011;65481;47.600;19.682;2024-01-27T11:59:59;1.73;;;0.93;;
76591;SDS011;65481;47.600;19.682;2024-01-27T12:04:59;2.28;;;0.90;;
76591;SDS011;65481;47.600;19.682;2024-01-27T12:10:00;2.28;;;0.90;;
76591;SDS011;65481;47.600;19.682;2024-01-27T12:15:00;2.80;;;1.10;;
76591;SDS011;65481;47.600;19.682;2024-01-27T12:20:03;3.65;;;1.00;;
76591;SDS011;65481;47.600;19.682;2024-01-27T12:25:17;1.42;;;0.82;;
76591;SDS011;65481;47.600;19.682;2024-01-27T12:30:17;1.27;;;0.60;;
76591;SDS011;65481;47.600;19.682;2024-01-27T12:35:18;3.42;;;1.38;;
76591;SDS011;65481;47.600;19.682;2024-01-27T12:40:19;2.53;;;1.55;;
76591;SDS011;65481;47.600;19.682;2024-01-27T12:45:20;6.05;;;1.25;;
76591;SDS011;65481;47.600;19.682;2024-01-27T12:50:21;0.90;;;0.57;;
76591;SDS011;65481;47.600;19.682;2024-01-27T12:55:21;2.50;;;0.90;;
76591;SDS011;65481;47.600;19.682;2024-01-27T13:00:21;1.73;;;0.80;;
76591;SDS011;65481;47.600;19.682;2024-01-27T13:05:22;3.47;;;0.88;;
76591;SDS011;65481;47.600;19.682;2024-01-27T13:10:23;2.90;;;1.05;;
76591;SDS011;65481;47.600;19.682;2024-01-27T13:15:23;1.35;;;0.90;;
76591;SDS011;65481;47.600;19.682;2024-01-27T13:20:25;2.63;;;0.90;;
76591;SDS011;65481;47.600;19.682;2024-01-27T13:25:25;0.93;;;0.77;;
76591;SDS011;65481;47.600;19.682;2024-01-27T13:30:26;1.42;;;1.23;;
76591;SDS011;65481;47.600;19.682;2024-01-27T13:35:28;3.72;;;1.10;;
76591;SDS011;65481;47.600;19.682;2024-01-27T13:40:28;2.63;;;0.68;;
76591;SDS011;65481;47.600;19.682;2024-01-27T13:45:29;3.50;;;1.00;;
76591;SDS011;65481;47.600;19.682;2024-01-27T13:50:30;2.30;;;1.15;;
76591;SDS011;65481;47.600;19.682;2024-01-27T13:55:33;4.15;;;1.70;;
76591;SDS011;65481;47.600;19.682;2024-01-27T14:00:33;6.97;;;2.50;;
76591;SDS011;65481;47.600;19.682;2024-01-27T14:05:34;6.22;;;2.78;;
76591;SDS011;65481;47.600;19.682;2024-01-27T14:10:35;3.90;;;2.28;;
76591;SDS011;65481;47.600;19.682;2024-01-27T14:15:35;3.72;;;1.00;;
76591;SDS011;65481;47.600;19.682;2024-01-27T14:20:38;2.90;;;1.17;;
76591;SDS011;65481;47.600;19.682;2024-01-27T14:25:39;3.92;;;0.90;;
76591;SDS011;65481;47.600;19.682;2024-01-27T14:30:39;2.08;;;0.88;;
76591;SDS011;65481;47.600;19.682;2024-01-27T14:35:40;5.20;;;1.48;;
76591;SDS011;65481;47.600;19.682;2024-01-27T14:40:40;2.47;;;1.23;;
76591;SDS011;65481;47.600;19.682;2024-01-27T14:45:41;3.70;;;1.33;;
76591;SDS011;65481;47.600;19.682;2024-01-27T14:50:42;2.80;;;1.08;;
76591;SDS011;65481;47.600;19.682;2024-01-27T14:55:43;3.28;;;1.13;;
76591;SDS011;65481;47.600;19.682;2024-01-27T15:00:44;3.90;;;1.65;;
76591;SDS011;65481;47.600;19.682;2024-01-27T15:10:52;4.47;;;1.27;;
76591;SDS011;65481;47.600;19.682;2024-01-27T15:15:53;4.00;;;1.67;;
76591;SDS011;65481;47.600;19.682;2024-01-27T15:20:53;2.80;;;1.35;;
76591;SDS011;65481;47.600;19.682;2024-01-27T15:25:54;4.93;;;1.58;;
76591;SDS011;65481;47.600;19.682;2024-01-27T15:30:54;3.28;;;1.42;;
76591;SDS011;65481;47.600;19.682;2024-01-27T15:35:55;4.78;;;1.48;;
76591;SDS011;65481;47.600;19.682;2024-01-27T15:40:55;4.00;;;1.92;;
76591;SDS011;65481;47.600;19.682;2024-01-27T15:45:56;4.53;;;1.40;;
76591;SDS011;65481;47.600;19.682;2024-01-27T15:50:57;2.65;;;1.50;;
76591;SDS011;65481;47.600;19.682;2024-01-27T15:55:59;1.77;;;1.23;;
76591;SDS011;65481;47.600;19.682;2024-01-27T16:00:59;4.43;;;1.40;;
76591;SDS011;65481;47.600;19.682;2024-01-27T16:06:00;3.38;;;1.60;;
76591;SDS011;65481;47.600;19.682;2024-01-27T16:11:00;1.67;;;1.05;;
76591;SDS011;65481;47.600;19.682;2024-01-27T16:16:00;12.73;;;3.70;;
76591;SDS011;65481;47.600;19.682;2024-01-27T16:21:01;5.80;;;2.28;;
76591;SDS011;65481;47.600;19.682;2024-01-27T16:26:02;2.53;;;1.40;;
76591;SDS011;65481;47.600;19.682;2024-01-27T16:31:03;4.53;;;1.70;;
76591;SDS011;65481;47.600;19.682;2024-01-27T16:36:04;3.22;;;1.67;;
76591;SDS011;65481;47.600;19.682;2024-01-27T16:41:05;6.18;;;1.52;;
76591;SDS011;65481;47.600;19.682;2024-01-27T16:46:06;5.13;;;1.48;;
76591;SDS011;65481;47.600;19.682;2024-01-27T16:51:08;2.13;;;1.08;;
76591;SDS011;65481;47.600;19.682;2024-01-27T16:56:09;2.85;;;1.23;;
76591;SDS011;65481;47.600;19.682;2024-01-27T17:01:09;5.93;;;1.40;;
76591;SDS011;65481;47.600;19.682;2024-01-27T17:06:10;4.80;;;1.70;;
76591;SDS011;65481;47.600;19.682;2024-01-27T17:11:10;6.10;;;2.08;;
76591;SDS011;65481;47.600;19.682;2024-01-27T17:16:11;5.43;;;1.65;;
76591;SDS011;65481;47.600;19.682;2024-01-27T17:21:11;4.90;;;1.67;;
76591;SDS011;65481;47.600;19.682;2024-01-27T17:26:12;9.07;;;2.30;;
76591;SDS011;65481;47.600;19.682;2024-01-27T17:31:14;5.75;;;1.60;;
76591;SDS011;65481;47.600;19.682;2024-01-27T17:36:15;10.57;;;4.78;;
76591;SDS011;65481;47.600;19.682;2024-01-27T17:41:16;6.55;;;2.70;;
76591;SDS011;65481;47.600;19.682;2024-01-27T17:46:16;4.68;;;2.40;;
76591;SDS011;65481;47.600;19.682;2024-01-27T17:51:17;4.75;;;2.30;;
76591;SDS011;65481;47.600;19.682;2024-01-27T17:56:21;5.03;;;1.77;;
76591;SDS011;65481;47.600;19.682;2024-01-27T18:01:22;9.65;;;3.25;;
76591;SDS011;65481;47.600;19.682;2024-01-27T18:06:22;9.18;;;2.25;;
76591;SDS011;65481;47.600;19.682;2024-01-27T18:11:23;7.53;;;2.83;;
76591;SDS011;65481;47.600;19.682;2024-01-27T18:16:24;11.23;;;4.70;;
76591;SDS011;65481;47.600;19.682;2024-01-27T18:21:25;4.82;;;3.03;;
76591;SDS011;65481;47.600;19.682;2024-01-27T18:26:25;7.93;;;2.90;;
76591;SDS011;65481;47.600;19.682;2024-01-27T18:31:26;13.55;;;4.90;;
76591;SDS011;65481;47.600;19.682;2024-01-27T18:36:26;4.65;;;1.95;;
76591;SDS011;65481;47.600;19.682;2024-01-27T18:41:27;6.05;;;2.40;;
76591;SDS011;65481;47.600;19.682;2024-01-27T18:46:27;5.60;;;1.95;;
76591;SDS011;65481;47.600;19.682;2024-01-27T18:51:28;7.20;;;2.20;;
76591;SDS011;65481;47.600;19.682;2024-01-27T18:56:28;5.53;;;2.70;;
76591;SDS011;65481;47.600;19.682;2024-01-27T19:01:29;4.53;;;2.25;;
76591;SDS011;65481;47.600;19.682;2024-01-27T19:06:30;8.73;;;3.38;;
76591;SDS011;65481;47.600;19.682;2024-01-27T19:11:31;5.40;;;2.17;;
76591;SDS011;65481;47.600;19.682;2024-01-27T19:16:32;2.70;;;1.40;;
76591;SDS011;65481;47.600;19.682;2024-01-27T19:21:32;5.57;;;2.00;;
76591;SDS011;65481;47.600;19.682;2024-01-27T19:26:33;3.65;;;1.60;;
76591;SDS011;65481;47.600;19.682;2024-01-27T19:31:35;5.72;;;2.33;;
76591;SDS011;65481;47.600;19.682;2024-01-27T19:36:36;5.97;;;2.13;;
76591;SDS011;65481;47.600;19.682;2024-01-27T19:41:37;5.43;;;1.98;;
76591;SDS011;65481;47.600;19.682;2024-01-27T19:46:38;3.80;;;2.00;;
76591;SDS011;65481;47.600;19.682;2024-01-27T19:51:42;4.07;;;1.90;;
76591;SDS011;65481;47.600;19.682;2024-01-27T19:56:46;4.97;;;2.30;;
76591;SDS011;65481;47.600;19.682;2024-01-27T20:01:46;4.18;;;1.60;;
76591;SDS011;65481;47.600;19.682;2024-01-27T20:06:47;2.88;;;1.63;;
76591;SDS011;65481;47.600;19.682;2024-01-27T20:11:49;6.63;;;2.30;;
76591;SDS011;65481;47.600;19.682;2024-01-27T20:16:50;6.97;;;3.17;;
76591;SDS011;65481;47.600;19.682;2024-01-27T20:21:52;8.05;;;2.50;;
76591;SDS011;65481;47.600;19.682;2024-01-27T20:26:53;11.85;;;3.05;;
76591;SDS011;65481;47.600;19.682;2024-01-27T20:31:53;7.40;;;2.90;;
76591;SDS011;65481;47.600;19.682;2024-01-27T20:36:55;6.63;;;2.22;;
76591;SDS011;65481;47.600;19.682;2024-01-27T20:41:56;7.95;;;2.47;;
76591;SDS011;65481;47.600;19.682;2024-01-27T20:46:57;4.55;;;2.53;;
76591;SDS011;65481;47.600;19.682;2024-01-27T20:51:57;4.70;;;2.15;;
76591;SDS011;65481;47.600;19.682;2024-01-27T20:56:58;6.20;;;2.53;;
76591;SDS011;65481;47.600;19.682;2024-01-27T21:01:59;6.53;;;2.33;;
76591;SDS011;65481;47.600;19.682;2024-01-27T21:07:02;5.25;;;2.95;;
76591;SDS011;65481;47.600;19.682;2024-01-27T21:12:03;6.97;;;2.40;;
76591;SDS011;65481;47.600;19.682;2024-01-27T21:17:03;4.60;;;2.35;;
76591;SDS011;65481;47.600;19.682;2024-01-27T21:22:04;4.65;;;2.25;;
76591;SDS011;65481;47.600;19.682;2024-01-27T21:27:04;3.85;;;2.33;;
76591;SDS011;65481;47.600;19.682;2024-01-27T21:32:05;8.93;;;2.30;;
76591;SDS011;65481;47.600;19.682;2024-01-27T21:37:06;4.30;;;1.85;;
76591;SDS011;65481;47.600;19.682;2024-01-27T21:42:06;5.55;;;2.03;;
76591;SDS011;65481;47.600;19.682;2024-01-27T21:47:07;5.60;;;2.05;;
76591;SDS011;65481;47.600;19.682;2024-01-27T21:52:07;5.60;;;2.33;;
76591;SDS011;65481;47.600;19.682;2024-01-27T21:57:08;6.93;;;2.22;;
76591;SDS011;65481;47.600;19.682;2024-01-27T22:02:08;3.92;;;1.90;;
76591;SDS011;65481;47.600;19.682;2024-01-27T22:07:10;11.65;;;3.10;;
76591;SDS011;65481;47.600;19.682;2024-01-27T22:12:11;35.20;;;10.88;;
76591;SDS011;65481;47.600;19.682;2024-01-27T22:17:12;26.52;;;10.82;;
76591;SDS011;65481;47.600;19.682;2024-01-27T22:22:13;6.45;;;3.47;;
76591;SDS011;65481;47.600;19.682;2024-01-27T22:27:13;5.65;;;3.75;;
76591;SDS011;65481;47.600;19.682;2024-01-27T22:32:14;4.35;;;2.22;;
76591;SDS011;65481;47.600;19.682;2024-01-27T22:37:15;9.15;;;2.35;;
76591;SDS011;65481;47.600;19.682;2024-01-27T22:42:16;5.03;;;2.78;;
76591;SDS011;65481;47.600;19.682;2024-01-27T22:47:16;5.45;;;1.92;;
76591;SDS011;65481;47.600;19.682;2024-01-27T22:52:17;6.65;;;2.60;;
76591;SDS011;65481;47.600;19.682;2024-01-27T22:57:18;4.25;;;2.40;;
76591;SDS011;65481;47.600;19.682;2024-01-27T23:02:18;4.85;;;2.50;;
76591;SDS011;65481;47.600;19.682;2024-01-27T23:07:18;3.50;;;2.47;;
76591;SDS011;65481;47.600;19.682;2024-01-27T23:12:19;2.22;;;1.80;;
76591;SDS011;65481;47.600;19.682;2024-01-27T23:17:19;3.50;;;1.77;;
76591;SDS011;65481;47.600;19.682;2024-01-27T23:22:20;6.97;;;2.47;;
76591;SDS011;65481;47.600;19.682;2024-01-27T23:27:21;7.28;;;3.40;;
76591;SDS011;65481;47.600;19.682;2024-01-27T23:32:21;7.72;;;3.45;;
76591;SDS011;65481;47.600;19.682;2024-01-27T23:37:22;8.50;;;3.30;;
76591;SDS011;65481;47.600;19.682;2024-01-27T23:42:22;5.05;;;2.88;;
76591;SDS011;65481;47.600;19.682;2024-01-27T23:47:23;5.05;;;2.60;;
76591;SDS011;65481;47.600;19.682;2024-01-27T23:52:23;7.70;;;3.03;;
76591;SDS011;65481;47.600;19.682;2024-01-27T23:57:25;5.60;;;2.30;;
